sensor_id;sensor_type;location;lat;lon;timestamp;P1;durP1;ratioP1;P2;durP2;ratioP2
19509;SDS011;9896;42.486;26.506;2022-07-30T00:02:02;10.97;;;9.07;;
19509;SDS011;9896;42.486;26.506;2022-07-30T00:04:28;19.20;;;9.67;;
19509;SDS011;9896;42.486;26.506;2022-07-30T00:06:53;12.47;;;10.03;;
19509;SDS011;9896;42.486;26.506;2022-07-30T00:09:19;12.77;;;9.53;;
19509;SDS011;9896;42.486;26.506;2022-07-30T00:11:45;12.17;;;9.87;;
19509;SDS011;9896;42.486;26.506;2022-07-30T00:14:11;13.30;;;9.67;;
19509;SDS011;9896;42.486;26.506;2022-07-30T00:16:36;15.77;;;10.20;;
19509;SDS011;9896;42.486;26.506;2022-07-30T00:19:02;11.30;;;8.90;;
19509;SDS011;9896;42.486;26.506;2022-07-30T00:21:28;13.43;;;9.53;;
19509;SDS011;9896;42.486;26.506;2022-07-30T00:23:54;16.63;;;9.13;;
19509;SDS011;9896;42.486;26.506;2022-07-30T00:26:22;17.07;;;9.37;;
19509;SDS011;9896;42.486;26.506;2022-07-30T00:28:48;10.70;;;8.97;;
19509;SDS011;9896;42.486;26.506;2022-07-30T00:31:13;10.93;;;8.70;;
19509;SDS011;9896;42.486;26.506;2022-07-30T00:33:39;11.90;;;7.93;;
19509;SDS011;9896;42.486;26.506;2022-07-30T00:36:04;12.90;;;8.53;;
19509;SDS011;9896;42.486;26.506;2022-07-30T00:38:30;12.93;;;8.37;;
19509;SDS011;9896;42.486;26.506;2022-07-30T00:40:55;9.57;;;8.20;;
19509;SDS011;9896;42.486;26.506;2022-07-30T00:43:22;12.73;;;8.17;;
19509;SDS011;9896;42.486;26.506;2022-07-30T00:45:47;9.93;;;8.17;;
19509;SDS011;9896;42.486;26.506;2022-07-30T00:48:13;12.63;;;8.67;;
19509;SDS011;9896;42.486;26.506;2022-07-30T00:50:39;13.67;;;7.93;;
19509;SDS011;9896;42.486;26.506;2022-07-30T00:53:05;11.90;;;8.00;;
19509;SDS011;9896;42.486;26.506;2022-07-30T00:55:31;11.00;;;7.87;;
19509;SDS011;9896;42.486;26.506;2022-07-30T00:57:57;13.83;;;8.13;;
19509;SDS011;9896;42.486;26.506;2022-07-30T01:00:23;9.03;;;8.13;;
19509;SDS011;9896;42.486;26.506;2022-07-30T01:02:49;22.43;;;9.40;;
19509;SDS011;9896;42.486;26.506;2022-07-30T01:05:15;10.07;;;7.53;;
19509;SDS011;9896;42.486;26.506;2022-07-30T01:07:41;15.97;;;8.00;;
19509;SDS011;9896;42.486;26.506;2022-07-30T01:10:07;9.57;;;7.50;;
19509;SDS011;9896;42.486;26.506;2022-07-30T01:12:34;10.97;;;7.77;;
19509;SDS011;9896;42.486;26.506;2022-07-30T01:15:00;11.67;;;7.80;;
19509;SDS011;9896;42.486;26.506;2022-07-30T01:17:29;8.73;;;7.00;;
19509;SDS011;9896;42.486;26.506;2022-07-30T01:19:55;15.67;;;7.93;;
19509;SDS011;9896;42.486;26.506;2022-07-30T01:24:56;8.20;;;6.63;;
19509;SDS011;9896;42.486;26.506;2022-07-30T01:27:25;11.20;;;7.60;;
19509;SDS011;9896;42.486;26.506;2022-07-30T01:29:54;9.67;;;7.53;;
19509;SDS011;9896;42.486;26.506;2022-07-30T01:32:22;10.37;;;7.77;;
19509;SDS011;9896;42.486;26.506;2022-07-30T01:34:50;8.90;;;7.37;;
19509;SDS011;9896;42.486;26.506;2022-07-30T01:37:19;11.13;;;7.87;;
19509;SDS011;9896;42.486;26.506;2022-07-30T01:39:47;11.43;;;8.17;;
19509;SDS011;9896;42.486;26.506;2022-07-30T01:42:15;11.37;;;8.30;;
19509;SDS011;9896;42.486;26.506;2022-07-30T01:44:43;10.93;;;8.33;;
19509;SDS011;9896;42.486;26.506;2022-07-30T01:47:11;11.47;;;8.40;;
19509;SDS011;9896;42.486;26.506;2022-07-30T01:49:38;11.10;;;9.10;;
19509;SDS011;9896;42.486;26.506;2022-07-30T01:52:05;13.23;;;8.97;;
19509;SDS011;9896;42.486;26.506;2022-07-30T01:54:33;11.90;;;8.90;;
19509;SDS011;9896;42.486;26.506;2022-07-30T01:57:02;16.00;;;9.50;;
19509;SDS011;9896;42.486;26.506;2022-07-30T01:59:29;9.10;;;8.13;;
19509;SDS011;9896;42.486;26.506;2022-07-30T02:01:57;9.53;;;8.03;;
19509;SDS011;9896;42.486;26.506;2022-07-30T02:04:23;9.73;;;7.70;;
19509;SDS011;9896;42.486;26.506;2022-07-30T02:09:42;11.23;;;8.10;;
19509;SDS011;9896;42.486;26.506;2022-07-30T02:12:15;8.87;;;7.47;;
19509;SDS011;9896;42.486;26.506;2022-07-30T02:18:03;12.97;;;8.40;;
19509;SDS011;9896;42.486;26.506;2022-07-30T02:20:35;12.07;;;8.27;;
19509;SDS011;9896;42.486;26.506;2022-07-30T02:23:05;9.27;;;7.63;;
19509;SDS011;9896;42.486;26.506;2022-07-30T02:25:34;9.67;;;6.90;;
19509;SDS011;9896;42.486;26.506;2022-07-30T02:28:07;10.40;;;6.93;;
19509;SDS011;9896;42.486;26.506;2022-07-30T02:30:35;13.93;;;7.20;;
19509;SDS011;9896;42.486;26.506;2022-07-30T02:33:05;9.63;;;7.60;;
19509;SDS011;9896;42.486;26.506;2022-07-30T02:35:34;9.10;;;7.40;;
19509;SDS011;9896;42.486;26.506;2022-07-30T02:38:02;12.50;;;7.43;;
19509;SDS011;9896;42.486;26.506;2022-07-30T02:40:29;10.80;;;7.30;;
19509;SDS011;9896;42.486;26.506;2022-07-30T02:42:55;10.87;;;7.30;;
19509;SDS011;9896;42.486;26.506;2022-07-30T02:45:23;10.30;;;7.00;;
19509;SDS011;9896;42.486;26.506;2022-07-30T02:47:51;12.03;;;7.10;;
19509;SDS011;9896;42.486;26.506;2022-07-30T02:50:20;9.17;;;7.50;;
19509;SDS011;9896;42.486;26.506;2022-07-30T02:52:48;14.53;;;7.83;;
19509;SDS011;9896;42.486;26.506;2022-07-30T02:55:15;9.97;;;7.80;;
19509;SDS011;9896;42.486;26.506;2022-07-30T02:57:42;12.00;;;7.67;;
19509;SDS011;9896;42.486;26.506;2022-07-30T03:00:09;8.03;;;7.10;;
19509;SDS011;9896;42.486;26.506;2022-07-30T03:02:35;10.43;;;8.30;;
19509;SDS011;9896;42.486;26.506;2022-07-30T03:05:03;13.07;;;7.73;;
19509;SDS011;9896;42.486;26.506;2022-07-30T03:07:30;13.67;;;8.03;;
19509;SDS011;9896;42.486;26.506;2022-07-30T03:09:56;12.97;;;8.17;;
19509;SDS011;9896;42.486;26.506;2022-07-30T03:12:22;11.23;;;7.80;;
19509;SDS011;9896;42.486;26.506;2022-07-30T03:14:49;16.80;;;7.43;;
19509;SDS011;9896;42.486;26.506;2022-07-30T03:17:16;15.57;;;7.60;;
19509;SDS011;9896;42.486;26.506;2022-07-30T03:19:43;10.40;;;7.73;;
19509;SDS011;9896;42.486;26.506;2022-07-30T03:22:11;11.97;;;8.10;;
19509;SDS011;9896;42.486;26.506;2022-07-30T03:24:41;13.83;;;7.90;;
19509;SDS011;9896;42.486;26.506;2022-07-30T03:27:08;11.60;;;7.53;;
19509;SDS011;9896;42.486;26.506;2022-07-30T03:29:34;9.43;;;7.83;;
19509;SDS011;9896;42.486;26.506;2022-07-30T03:32:03;18.47;;;9.27;;
19509;SDS011;9896;42.486;26.506;2022-07-30T03:34:30;13.97;;;8.27;;
19509;SDS011;9896;42.486;26.506;2022-07-30T03:36:59;13.80;;;9.47;;
19509;SDS011;9896;42.486;26.506;2022-07-30T03:39:25;14.10;;;8.53;;
19509;SDS011;9896;42.486;26.506;2022-07-30T03:41:52;14.60;;;8.97;;
19509;SDS011;9896;42.486;26.506;2022-07-30T03:44:19;11.33;;;8.23;;
19509;SDS011;9896;42.486;26.506;2022-07-30T03:46:46;14.20;;;7.90;;
19509;SDS011;9896;42.486;26.506;2022-07-30T03:49:14;16.33;;;8.63;;
19509;SDS011;9896;42.486;26.506;2022-07-30T03:51:40;10.60;;;8.93;;
19509;SDS011;9896;42.486;26.506;2022-07-30T03:54:07;17.00;;;9.23;;
19509;SDS011;9896;42.486;26.506;2022-07-30T03:56:35;20.33;;;11.33;;
19509;SDS011;9896;42.486;26.506;2022-07-30T03:59:01;13.90;;;9.53;;
19509;SDS011;9896;42.486;26.506;2022-07-30T04:01:28;14.20;;;9.60;;
19509;SDS011;9896;42.486;26.506;2022-07-30T04:03:53;13.40;;;9.03;;
19509;SDS011;9896;42.486;26.506;2022-07-30T04:06:19;16.20;;;9.33;;
19509;SDS011;9896;42.486;26.506;2022-07-30T04:08:45;13.40;;;8.13;;
19509;SDS011;9896;42.486;26.506;2022-07-30T04:11:10;14.53;;;9.30;;
19509;SDS011;9896;42.486;26.506;2022-07-30T04:13:36;13.63;;;9.37;;
19509;SDS011;9896;42.486;26.506;2022-07-30T04:16:13;13.70;;;8.97;;
19509;SDS011;9896;42.486;26.506;2022-07-30T04:18:46;17.57;;;9.70;;
19509;SDS011;9896;42.486;26.506;2022-07-30T04:21:14;13.10;;;9.63;;
19509;SDS011;9896;42.486;26.506;2022-07-30T04:23:42;13.07;;;9.90;;
19509;SDS011;9896;42.486;26.506;2022-07-30T04:26:09;16.87;;;10.43;;
19509;SDS011;9896;42.486;26.506;2022-07-30T04:28:35;13.13;;;10.00;;
19509;SDS011;9896;42.486;26.506;2022-07-30T04:31:02;16.53;;;9.77;;
19509;SDS011;9896;42.486;26.506;2022-07-30T04:33:29;12.90;;;9.50;;
19509;SDS011;9896;42.486;26.506;2022-07-30T04:35:55;11.37;;;8.83;;
19509;SDS011;9896;42.486;26.506;2022-07-30T04:38:20;17.10;;;9.83;;
19509;SDS011;9896;42.486;26.506;2022-07-30T04:40:46;15.57;;;10.00;;
19509;SDS011;9896;42.486;26.506;2022-07-30T04:43:13;10.90;;;9.13;;
19509;SDS011;9896;42.486;26.506;2022-07-30T04:45:39;12.87;;;8.53;;
19509;SDS011;9896;42.486;26.506;2022-07-30T04:48:06;12.97;;;9.47;;
19509;SDS011;9896;42.486;26.506;2022-07-30T04:50:31;11.57;;;8.67;;
19509;SDS011;9896;42.486;26.506;2022-07-30T04:52:59;12.63;;;9.13;;
19509;SDS011;9896;42.486;26.506;2022-07-30T04:55:25;12.00;;;9.10;;
19509;SDS011;9896;42.486;26.506;2022-07-30T04:57:51;13.70;;;10.40;;
19509;SDS011;9896;42.486;26.506;2022-07-30T05:00:18;18.40;;;10.77;;
19509;SDS011;9896;42.486;26.506;2022-07-30T05:02:44;16.43;;;10.80;;
19509;SDS011;9896;42.486;26.506;2022-07-30T05:05:11;30.43;;;17.37;;
19509;SDS011;9896;42.486;26.506;2022-07-30T05:07:38;16.80;;;9.53;;
19509;SDS011;9896;42.486;26.506;2022-07-30T05:10:13;16.07;;;9.87;;
19509;SDS011;9896;42.486;26.506;2022-07-30T05:12:38;17.03;;;10.13;;
19509;SDS011;9896;42.486;26.506;2022-07-30T05:15:04;16.47;;;10.13;;
19509;SDS011;9896;42.486;26.506;2022-07-30T05:17:31;15.83;;;10.17;;
19509;SDS011;9896;42.486;26.506;2022-07-30T05:19:57;12.50;;;10.03;;
19509;SDS011;9896;42.486;26.506;2022-07-30T05:22:23;16.10;;;9.87;;
19509;SDS011;9896;42.486;26.506;2022-07-30T05:24:51;19.47;;;10.20;;
19509;SDS011;9896;42.486;26.506;2022-07-30T05:27:17;17.43;;;10.00;;
19509;SDS011;9896;42.486;26.506;2022-07-30T05:29:44;13.60;;;10.37;;
19509;SDS011;9896;42.486;26.506;2022-07-30T05:32:10;13.00;;;9.10;;
19509;SDS011;9896;42.486;26.506;2022-07-30T05:34:36;16.23;;;10.03;;
19509;SDS011;9896;42.486;26.506;2022-07-30T05:37:01;14.83;;;10.80;;
19509;SDS011;9896;42.486;26.506;2022-07-30T05:39:27;18.70;;;9.47;;
19509;SDS011;9896;42.486;26.506;2022-07-30T05:41:53;13.33;;;9.63;;
19509;SDS011;9896;42.486;26.506;2022-07-30T05:44:19;15.23;;;9.10;;
19509;SDS011;9896;42.486;26.506;2022-07-30T05:46:44;18.10;;;11.30;;
19509;SDS011;9896;42.486;26.506;2022-07-30T05:49:10;11.30;;;8.50;;
19509;SDS011;9896;42.486;26.506;2022-07-30T05:51:35;11.93;;;9.27;;
19509;SDS011;9896;42.486;26.506;2022-07-30T05:54:01;9.27;;;8.33;;
19509;SDS011;9896;42.486;26.506;2022-07-30T05:56:26;10.53;;;8.90;;
19509;SDS011;9896;42.486;26.506;2022-07-30T05:58:52;10.50;;;7.90;;
19509;SDS011;9896;42.486;26.506;2022-07-30T06:01:17;10.53;;;7.53;;
19509;SDS011;9896;42.486;26.506;2022-07-30T06:03:43;13.07;;;8.10;;
19509;SDS011;9896;42.486;26.506;2022-07-30T06:06:08;11.13;;;7.30;;
19509;SDS011;9896;42.486;26.506;2022-07-30T06:08:34;21.53;;;8.10;;
19509;SDS011;9896;42.486;26.506;2022-07-30T06:10:59;13.03;;;8.03;;
19509;SDS011;9896;42.486;26.506;2022-07-30T06:13:25;11.50;;;8.00;;
19509;SDS011;9896;42.486;26.506;2022-07-30T06:15:51;12.60;;;8.33;;
19509;SDS011;9896;42.486;26.506;2022-07-30T06:18:16;13.30;;;7.63;;
19509;SDS011;9896;42.486;26.506;2022-07-30T06:20:42;8.05;;;7.25;;
19509;SDS011;9896;42.486;26.506;2022-07-30T06:23:07;12.27;;;7.97;;
19509;SDS011;9896;42.486;26.506;2022-07-30T06:25:32;12.33;;;7.90;;
19509;SDS011;9896;42.486;26.506;2022-07-30T06:27:58;12.88;;;7.75;;
19509;SDS011;9896;42.486;26.506;2022-07-30T06:30:23;10.52;;;7.53;;
19509;SDS011;9896;42.486;26.506;2022-07-30T06:32:49;13.55;;;8.15;;
19509;SDS011;9896;42.486;26.506;2022-07-30T06:35:14;9.95;;;7.65;;
19509;SDS011;9896;42.486;26.506;2022-07-30T06:37:40;11.65;;;8.35;;
19509;SDS011;9896;42.486;26.506;2022-07-30T06:40:07;13.90;;;7.75;;
19509;SDS011;9896;42.486;26.506;2022-07-30T06:42:33;11.55;;;7.75;;
19509;SDS011;9896;42.486;26.506;2022-07-30T06:44:58;7.88;;;6.88;;
19509;SDS011;9896;42.486;26.506;2022-07-30T06:47:24;17.33;;;8.57;;
19509;SDS011;9896;42.486;26.506;2022-07-30T06:49:53;9.57;;;6.50;;
19509;SDS011;9896;42.486;26.506;2022-07-30T06:52:20;10.30;;;6.43;;
19509;SDS011;9896;42.486;26.506;2022-07-30T06:54:46;7.35;;;6.28;;
19509;SDS011;9896;42.486;26.506;2022-07-30T06:57:15;12.38;;;6.75;;
19509;SDS011;9896;42.486;26.506;2022-07-30T06:59:40;15.65;;;7.80;;
19509;SDS011;9896;42.486;26.506;2022-07-30T07:02:06;9.23;;;6.95;;
19509;SDS011;9896;42.486;26.506;2022-07-30T07:04:32;10.65;;;7.13;;
19509;SDS011;9896;42.486;26.506;2022-07-30T07:06:58;10.18;;;6.43;;
19509;SDS011;9896;42.486;26.506;2022-07-30T07:09:23;8.77;;;6.38;;
19509;SDS011;9896;42.486;26.506;2022-07-30T07:11:49;11.90;;;6.47;;
19509;SDS011;9896;42.486;26.506;2022-07-30T07:14:15;10.95;;;7.40;;
19509;SDS011;9896;42.486;26.506;2022-07-30T07:16:41;8.57;;;6.70;;
19509;SDS011;9896;42.486;26.506;2022-07-30T07:19:06;8.13;;;5.80;;
19509;SDS011;9896;42.486;26.506;2022-07-30T07:21:32;10.20;;;6.13;;
19509;SDS011;9896;42.486;26.506;2022-07-30T07:23:57;8.85;;;6.20;;
19509;SDS011;9896;42.486;26.506;2022-07-30T07:26:27;8.27;;;5.63;;
19509;SDS011;9896;42.486;26.506;2022-07-30T07:28:53;9.88;;;5.32;;
19509;SDS011;9896;42.486;26.506;2022-07-30T07:31:18;10.82;;;6.45;;
19509;SDS011;9896;42.486;26.506;2022-07-30T07:33:44;9.35;;;6.32;;
19509;SDS011;9896;42.486;26.506;2022-07-30T07:36:12;9.02;;;5.88;;
19509;SDS011;9896;42.486;26.506;2022-07-30T07:38:37;8.70;;;5.65;;
19509;SDS011;9896;42.486;26.506;2022-07-30T07:41:03;11.70;;;5.82;;
19509;SDS011;9896;42.486;26.506;2022-07-30T07:43:29;8.93;;;6.15;;
19509;SDS011;9896;42.486;26.506;2022-07-30T07:45:55;8.30;;;6.03;;
19509;SDS011;9896;42.486;26.506;2022-07-30T07:48:20;8.98;;;6.00;;
19509;SDS011;9896;42.486;26.506;2022-07-30T07:50:46;11.10;;;6.18;;
19509;SDS011;9896;42.486;26.506;2022-07-30T07:53:12;8.05;;;5.47;;
19509;SDS011;9896;42.486;26.506;2022-07-30T07:55:37;7.85;;;5.65;;
19509;SDS011;9896;42.486;26.506;2022-07-30T07:58:03;6.65;;;5.05;;
19509;SDS011;9896;42.486;26.506;2022-07-30T08:00:29;9.85;;;5.22;;
19509;SDS011;9896;42.486;26.506;2022-07-30T08:02:54;7.53;;;5.38;;
19509;SDS011;9896;42.486;26.506;2022-07-30T08:05:20;6.18;;;5.57;;
19509;SDS011;9896;42.486;26.506;2022-07-30T08:07:45;6.32;;;5.35;;
19509;SDS011;9896;42.486;26.506;2022-07-30T08:10:11;7.68;;;5.57;;
19509;SDS011;9896;42.486;26.506;2022-07-30T08:12:39;8.73;;;5.70;;
19509;SDS011;9896;42.486;26.506;2022-07-30T08:15:05;8.07;;;5.35;;
19509;SDS011;9896;42.486;26.506;2022-07-30T08:17:31;6.85;;;5.30;;
19509;SDS011;9896;42.486;26.506;2022-07-30T08:19:59;5.72;;;5.03;;
19509;SDS011;9896;42.486;26.506;2022-07-30T08:22:25;6.85;;;5.55;;
19509;SDS011;9896;42.486;26.506;2022-07-30T08:24:51;9.00;;;6.05;;
19509;SDS011;9896;42.486;26.506;2022-07-30T08:27:18;6.88;;;5.90;;
19509;SDS011;9896;42.486;26.506;2022-07-30T08:29:44;9.23;;;5.05;;
19509;SDS011;9896;42.486;26.506;2022-07-30T08:32:09;7.05;;;5.47;;
19509;SDS011;9896;42.486;26.506;2022-07-30T08:34:35;6.55;;;5.80;;
19509;SDS011;9896;42.486;26.506;2022-07-30T08:37:00;9.20;;;5.97;;
19509;SDS011;9896;42.486;26.506;2022-07-30T08:39:26;11.60;;;5.75;;
19509;SDS011;9896;42.486;26.506;2022-07-30T08:41:51;11.57;;;6.05;;
19509;SDS011;9896;42.486;26.506;2022-07-30T08:44:18;6.10;;;5.50;;
19509;SDS011;9896;42.486;26.506;2022-07-30T08:46:46;9.90;;;5.50;;
19509;SDS011;9896;42.486;26.506;2022-07-30T08:49:13;6.25;;;5.68;;
19509;SDS011;9896;42.486;26.506;2022-07-30T08:51:39;9.63;;;5.88;;
19509;SDS011;9896;42.486;26.506;2022-07-30T08:54:05;6.80;;;5.93;;
19509;SDS011;9896;42.486;26.506;2022-07-30T08:56:31;10.32;;;6.13;;
19509;SDS011;9896;42.486;26.506;2022-07-30T08:59:01;9.20;;;5.90;;
19509;SDS011;9896;42.486;26.506;2022-07-30T09:01:27;7.03;;;6.13;;
19509;SDS011;9896;42.486;26.506;2022-07-30T09:03:52;13.70;;;6.22;;
19509;SDS011;9896;42.486;26.506;2022-07-30T09:06:18;6.07;;;5.47;;
19509;SDS011;9896;42.486;26.506;2022-07-30T09:08:43;6.72;;;5.50;;
19509;SDS011;9896;42.486;26.506;2022-07-30T09:11:09;11.10;;;5.63;;
19509;SDS011;9896;42.486;26.506;2022-07-30T09:13:36;6.82;;;5.68;;
19509;SDS011;9896;42.486;26.506;2022-07-30T09:16:04;7.90;;;5.68;;
19509;SDS011;9896;42.486;26.506;2022-07-30T09:18:31;6.50;;;5.22;;
19509;SDS011;9896;42.486;26.506;2022-07-30T09:21:17;5.97;;;5.38;;
19509;SDS011;9896;42.486;26.506;2022-07-30T09:24:06;6.40;;;5.63;;
19509;SDS011;9896;42.486;26.506;2022-07-30T09:26:50;8.82;;;6.20;;
19509;SDS011;9896;42.486;26.506;2022-07-30T09:29:29;8.35;;;5.65;;
19509;SDS011;9896;42.486;26.506;2022-07-30T09:31:57;7.22;;;5.57;;
19509;SDS011;9896;42.486;26.506;2022-07-30T09:34:30;6.88;;;6.15;;
19509;SDS011;9896;42.486;26.506;2022-07-30T09:37:01;11.18;;;5.82;;
19509;SDS011;9896;42.486;26.506;2022-07-30T09:41:56;6.20;;;5.65;;
19509;SDS011;9896;42.486;26.506;2022-07-30T09:44:26;7.78;;;5.28;;
19509;SDS011;9896;42.486;26.506;2022-07-30T09:46:54;9.82;;;6.15;;
19509;SDS011;9896;42.486;26.506;2022-07-30T09:49:21;6.47;;;5.45;;
19509;SDS011;9896;42.486;26.506;2022-07-30T09:51:48;9.00;;;5.80;;
19509;SDS011;9896;42.486;26.506;2022-07-30T09:54:14;6.75;;;5.50;;
19509;SDS011;9896;42.486;26.506;2022-07-30T09:56:40;9.77;;;5.93;;
19509;SDS011;9896;42.486;26.506;2022-07-30T09:59:24;7.05;;;5.43;;
19509;SDS011;9896;42.486;26.506;2022-07-30T10:01:51;7.30;;;5.68;;
19509;SDS011;9896;42.486;26.506;2022-07-30T10:04:37;10.15;;;8.88;;
19509;SDS011;9896;42.486;26.506;2022-07-30T10:07:02;8.40;;;5.47;;
19509;SDS011;9896;42.486;26.506;2022-07-30T10:09:32;6.95;;;5.50;;
19509;SDS011;9896;42.486;26.506;2022-07-30T10:12:03;7.82;;;5.50;;
19509;SDS011;9896;42.486;26.506;2022-07-30T10:14:33;9.23;;;5.03;;
19509;SDS011;9896;42.486;26.506;2022-07-30T10:17:01;7.05;;;5.03;;
19509;SDS011;9896;42.486;26.506;2022-07-30T10:19:28;8.10;;;5.18;;
19509;SDS011;9896;42.486;26.506;2022-07-30T10:21:55;8.93;;;5.65;;
19509;SDS011;9896;42.486;26.506;2022-07-30T10:24:22;7.28;;;6.38;;
19509;SDS011;9896;42.486;26.506;2022-07-30T10:26:49;7.85;;;5.60;;
19509;SDS011;9896;42.486;26.506;2022-07-30T10:29:16;11.48;;;5.00;;
19509;SDS011;9896;42.486;26.506;2022-07-30T10:31:43;8.52;;;5.40;;
19509;SDS011;9896;42.486;26.506;2022-07-30T10:34:13;6.10;;;5.50;;
19509;SDS011;9896;42.486;26.506;2022-07-30T10:36:43;7.57;;;6.03;;
19509;SDS011;9896;42.486;26.506;2022-07-30T10:39:26;7.22;;;5.72;;
19509;SDS011;9896;42.486;26.506;2022-07-30T10:44:42;12.90;;;5.53;;
19509;SDS011;9896;42.486;26.506;2022-07-30T10:47:17;5.85;;;5.22;;
19509;SDS011;9896;42.486;26.506;2022-07-30T10:50:03;8.32;;;5.03;;
19509;SDS011;9896;42.486;26.506;2022-07-30T10:52:48;7.25;;;5.18;;
19509;SDS011;9896;42.486;26.506;2022-07-30T10:55:17;8.40;;;5.93;;
19509;SDS011;9896;42.486;26.506;2022-07-30T11:00:34;7.07;;;5.35;;
19509;SDS011;9896;42.486;26.506;2022-07-30T11:03:24;6.75;;;4.68;;
19509;SDS011;9896;42.486;26.506;2022-07-30T11:05:52;6.78;;;4.90;;
19509;SDS011;9896;42.486;26.506;2022-07-30T11:08:40;8.15;;;5.28;;
19509;SDS011;9896;42.486;26.506;2022-07-30T11:13:57;8.35;;;5.00;;
19509;SDS011;9896;42.486;26.506;2022-07-30T11:19:05;5.82;;;5.28;;
19509;SDS011;9896;42.486;26.506;2022-07-30T11:21:32;9.00;;;5.05;;
19509;SDS011;9896;42.486;26.506;2022-07-30T11:23:59;6.55;;;4.72;;
19509;SDS011;9896;42.486;26.506;2022-07-30T11:29:06;6.50;;;5.40;;
19509;SDS011;9896;42.486;26.506;2022-07-30T11:31:52;10.52;;;5.40;;
19509;SDS011;9896;42.486;26.506;2022-07-30T11:42:25;7.07;;;5.90;;
19509;SDS011;9896;42.486;26.506;2022-07-30T11:47:43;11.75;;;5.35;;
19509;SDS011;9896;42.486;26.506;2022-07-30T11:50:22;9.20;;;5.57;;
19509;SDS011;9896;42.486;26.506;2022-07-30T11:53:02;6.10;;;4.85;;
19509;SDS011;9896;42.486;26.506;2022-07-30T11:55:40;7.40;;;5.63;;
19509;SDS011;9896;42.486;26.506;2022-07-30T11:58:08;4.95;;;4.55;;
19509;SDS011;9896;42.486;26.506;2022-07-30T12:01:05;7.97;;;4.68;;
19509;SDS011;9896;42.486;26.506;2022-07-30T12:03:43;5.88;;;5.20;;
19509;SDS011;9896;42.486;26.506;2022-07-30T12:06:11;8.18;;;5.35;;
19509;SDS011;9896;42.486;26.506;2022-07-30T12:08:43;6.72;;;4.85;;
19509;SDS011;9896;42.486;26.506;2022-07-30T12:11:10;6.93;;;4.93;;
19509;SDS011;9896;42.486;26.506;2022-07-30T12:13:36;8.20;;;5.18;;
19509;SDS011;9896;42.486;26.506;2022-07-30T12:16:09;5.53;;;5.03;;
19509;SDS011;9896;42.486;26.506;2022-07-30T12:18:36;5.20;;;4.70;;
19509;SDS011;9896;42.486;26.506;2022-07-30T12:21:03;5.85;;;4.85;;
19509;SDS011;9896;42.486;26.506;2022-07-30T12:23:32;5.90;;;4.82;;
19509;SDS011;9896;42.486;26.506;2022-07-30T12:25:58;7.63;;;5.07;;
19509;SDS011;9896;42.486;26.506;2022-07-30T12:28:28;7.53;;;5.53;;
19509;SDS011;9896;42.486;26.506;2022-07-30T12:30:55;8.40;;;5.47;;
19509;SDS011;9896;42.486;26.506;2022-07-30T12:33:22;6.00;;;5.07;;
19509;SDS011;9896;42.486;26.506;2022-07-30T12:35:55;10.70;;;5.40;;
19509;SDS011;9896;42.486;26.506;2022-07-30T12:38:22;6.25;;;5.65;;
19509;SDS011;9896;42.486;26.506;2022-07-30T12:40:58;8.13;;;5.72;;
19509;SDS011;9896;42.486;26.506;2022-07-30T12:46:19;5.68;;;5.03;;
19509;SDS011;9896;42.486;26.506;2022-07-30T12:51:29;6.95;;;5.38;;
19509;SDS011;9896;42.486;26.506;2022-07-30T12:54:14;8.07;;;5.45;;
19509;SDS011;9896;42.486;26.506;2022-07-30T12:56:54;5.68;;;4.90;;
19509;SDS011;9896;42.486;26.506;2022-07-30T12:59:22;8.70;;;6.00;;
19509;SDS011;9896;42.486;26.506;2022-07-30T13:01:47;7.85;;;5.70;;
19509;SDS011;9896;42.486;26.506;2022-07-30T13:04:14;8.70;;;5.15;;
19509;SDS011;9896;42.486;26.506;2022-07-30T13:06:40;8.27;;;5.53;;
19509;SDS011;9896;42.486;26.506;2022-07-30T13:09:16;9.90;;;5.57;;
19509;SDS011;9896;42.486;26.506;2022-07-30T13:11:44;7.68;;;5.45;;
19509;SDS011;9896;42.486;26.506;2022-07-30T13:14:09;6.78;;;5.43;;
19509;SDS011;9896;42.486;26.506;2022-07-30T13:16:37;10.52;;;5.72;;
19509;SDS011;9896;42.486;26.506;2022-07-30T13:19:07;10.07;;;5.85;;
19509;SDS011;9896;42.486;26.506;2022-07-30T13:21:35;9.77;;;5.15;;
19509;SDS011;9896;42.486;26.506;2022-07-30T13:24:01;5.55;;;4.95;;
19509;SDS011;9896;42.486;26.506;2022-07-30T13:26:27;6.00;;;5.22;;
19509;SDS011;9896;42.486;26.506;2022-07-30T13:28:58;9.48;;;5.35;;
19509;SDS011;9896;42.486;26.506;2022-07-30T13:31:24;5.70;;;4.90;;
19509;SDS011;9896;42.486;26.506;2022-07-30T13:33:49;5.55;;;5.05;;
19509;SDS011;9896;42.486;26.506;2022-07-30T13:36:16;7.05;;;4.78;;
19509;SDS011;9896;42.486;26.506;2022-07-30T13:38:42;8.68;;;5.38;;
19509;SDS011;9896;42.486;26.506;2022-07-30T13:41:08;8.25;;;5.32;;
19509;SDS011;9896;42.486;26.506;2022-07-30T13:43:34;6.80;;;5.22;;
19509;SDS011;9896;42.486;26.506;2022-07-30T13:46:00;5.88;;;4.80;;
19509;SDS011;9896;42.486;26.506;2022-07-30T13:48:30;5.95;;;5.25;;
19509;SDS011;9896;42.486;26.506;2022-07-30T13:50:57;6.45;;;4.72;;
19509;SDS011;9896;42.486;26.506;2022-07-30T13:53:24;5.82;;;4.75;;
19509;SDS011;9896;42.486;26.506;2022-07-30T13:55:50;6.03;;;5.20;;
19509;SDS011;9896;42.486;26.506;2022-07-30T13:58:16;7.22;;;5.13;;
19509;SDS011;9896;42.486;26.506;2022-07-30T14:00:41;5.70;;;5.10;;
19509;SDS011;9896;42.486;26.506;2022-07-30T14:03:09;11.05;;;5.22;;
19509;SDS011;9896;42.486;26.506;2022-07-30T14:05:35;5.80;;;4.70;;
19509;SDS011;9896;42.486;26.506;2022-07-30T14:08:03;6.97;;;5.13;;
19509;SDS011;9896;42.486;26.506;2022-07-30T14:10:30;8.75;;;4.90;;
19509;SDS011;9896;42.486;26.506;2022-07-30T14:12:56;5.45;;;4.70;;
19509;SDS011;9896;42.486;26.506;2022-07-30T14:15:24;5.00;;;4.45;;
19509;SDS011;9896;42.486;26.506;2022-07-30T14:17:52;6.35;;;4.70;;
19509;SDS011;9896;42.486;26.506;2022-07-30T14:20:18;6.75;;;4.93;;
19509;SDS011;9896;42.486;26.506;2022-07-30T14:22:44;6.43;;;4.65;;
19509;SDS011;9896;42.486;26.506;2022-07-30T14:25:09;9.13;;;5.10;;
19509;SDS011;9896;42.486;26.506;2022-07-30T14:27:36;8.57;;;4.63;;
19509;SDS011;9896;42.486;26.506;2022-07-30T14:30:03;6.25;;;4.60;;
19509;SDS011;9896;42.486;26.506;2022-07-30T14:32:30;5.00;;;4.50;;
19509;SDS011;9896;42.486;26.506;2022-07-30T14:34:56;7.75;;;4.93;;
19509;SDS011;9896;42.486;26.506;2022-07-30T14:37:22;6.18;;;4.78;;
19509;SDS011;9896;42.486;26.506;2022-07-30T14:39:47;5.72;;;4.25;;
19509;SDS011;9896;42.486;26.506;2022-07-30T14:42:13;7.07;;;4.47;;
19509;SDS011;9896;42.486;26.506;2022-07-30T14:44:39;6.50;;;4.50;;
19509;SDS011;9896;42.486;26.506;2022-07-30T14:47:05;5.28;;;4.40;;
19509;SDS011;9896;42.486;26.506;2022-07-30T14:49:30;7.55;;;4.60;;
19509;SDS011;9896;42.486;26.506;2022-07-30T14:51:56;7.53;;;5.15;;
19509;SDS011;9896;42.486;26.506;2022-07-30T14:54:21;9.60;;;4.68;;
19509;SDS011;9896;42.486;26.506;2022-07-30T14:56:47;8.00;;;4.75;;
19509;SDS011;9896;42.486;26.506;2022-07-30T14:59:13;8.30;;;4.82;;
19509;SDS011;9896;42.486;26.506;2022-07-30T15:01:39;5.30;;;4.78;;
19509;SDS011;9896;42.486;26.506;2022-07-30T15:04:06;5.65;;;4.80;;
19509;SDS011;9896;42.486;26.506;2022-07-30T15:06:34;6.00;;;4.97;;
19509;SDS011;9896;42.486;26.506;2022-07-30T15:09:00;6.25;;;5.10;;
19509;SDS011;9896;42.486;26.506;2022-07-30T15:11:25;6.18;;;4.68;;
19509;SDS011;9896;42.486;26.506;2022-07-30T15:13:51;6.78;;;5.20;;
19509;SDS011;9896;42.486;26.506;2022-07-30T15:16:17;7.10;;;4.97;;
19509;SDS011;9896;42.486;26.506;2022-07-30T15:18:43;7.60;;;5.03;;
19509;SDS011;9896;42.486;26.506;2022-07-30T15:21:09;5.90;;;5.07;;
19509;SDS011;9896;42.486;26.506;2022-07-30T15:23:36;6.43;;;5.57;;
19509;SDS011;9896;42.486;26.506;2022-07-30T15:26:02;6.72;;;5.25;;